createdAt,value
2017-07-10T00:00:12.161Z,32.20
2017-07-10T00:02:40.260Z,32.20
2017-07-10T00:05:08.384Z,32.20
2017-07-10T00:07:36.488Z,32.30
2017-07-10T00:10:04.583Z,32.30
2017-07-10T00:12:32.709Z,32.40
2017-07-10T00:15:00.915Z,32.40
2017-07-10T00:17:29.025Z,32.40
2017-07-10T00:19:57.184Z,32.40
2017-07-10T00:22:25.299Z,32.40
2017-07-10T00:24:53.404Z,32.40
2017-07-10T00:27:21.582Z,32.40
2017-07-10T00:29:49.684Z,31.90
2017-07-10T00:32:17.800Z,32.50
2017-07-10T00:34:45.909Z,32.50
2017-07-10T00:37:14.023Z,32.50
2017-07-10T00:39:42.121Z,32.50
2017-07-10T00:42:10.221Z,32.50
2017-07-10T00:44:38.332Z,32.50
2017-07-10T00:47:06.434Z,32.60
2017-07-10T00:49:34.533Z,32.60
2017-07-10T00:52:02.633Z,32.60
2017-07-10T00:54:30.744Z,32.60
2017-07-10T00:56:58.866Z,32.60
2017-07-10T00:59:27.048Z,32.60
2017-07-10T01:01:55.161Z,32.60
2017-07-10T01:04:23.341Z,32.60
2017-07-10T01:06:51.443Z,32.70
2017-07-10T01:09:19.549Z,32.70
2017-07-10T01:11:47.676Z,32.60
2017-07-10T01:14:15.780Z,32.70
2017-07-10T01:16:43.880Z,32.70
2017-07-10T01:19:12.030Z,32.70
2017-07-10T01:21:40.141Z,32.60
2017-07-10T01:24:08.251Z,32.70
2017-07-10T01:26:36.373Z,32.70
2017-07-10T01:29:04.480Z,32.70
2017-07-10T01:31:32.585Z,32.70
2017-07-10T01:34:00.708Z,32.70
2017-07-10T01:36:28.817Z,32.70
2017-07-10T01:38:57.136Z,33.30
2017-07-10T01:41:25.321Z,32.70
2017-07-10T01:43:53.848Z,32.70
2017-07-10T01:46:21.950Z,33.30
2017-07-10T01:48:50.048Z,32.70
2017-07-10T01:51:18.149Z,32.70
2017-07-10T01:53:46.255Z,32.70
2017-07-10T01:56:14.346Z,32.60
2017-07-10T01:58:42.481Z,32.70
2017-07-10T02:01:10.603Z,32.70
2017-07-10T02:03:38.736Z,32.70
2017-07-10T02:06:06.914Z,32.70
2017-07-10T02:08:35.030Z,32.70
2017-07-10T02:11:03.145Z,32.80
2017-07-10T02:13:31.237Z,32.80
2017-07-10T02:15:59.365Z,32.80
2017-07-10T02:18:27.443Z,32.80
2017-07-10T02:20:55.557Z,32.80
2017-07-10T02:23:23.664Z,32.90
2017-07-10T02:25:51.777Z,32.80
2017-07-10T02:28:19.888Z,32.80
2017-07-10T02:30:48.016Z,32.80
2017-07-10T02:33:16.659Z,33.40
2017-07-10T02:35:44.751Z,32.90
2017-07-10T02:38:13.376Z,32.90
2017-07-10T02:40:41.469Z,32.90
2017-07-10T02:43:09.569Z,32.90
2017-07-10T02:45:37.704Z,32.90
2017-07-10T02:48:05.840Z,32.90
2017-07-10T02:50:33.940Z,32.90
2017-07-10T02:53:02.059Z,32.90
2017-07-10T02:55:30.184Z,32.90
2017-07-10T02:57:58.289Z,33.00
2017-07-10T03:00:26.392Z,33.00
2017-07-10T03:02:54.494Z,33.10
2017-07-10T03:05:22.600Z,33.20
2017-07-10T03:07:50.713Z,33.20
2017-07-10T03:10:18.840Z,33.20
2017-07-10T03:12:51.905Z,33.10
2017-07-10T03:15:20.024Z,33.10
2017-07-10T03:17:48.446Z,33.30
2017-07-10T03:20:16.564Z,33.30
2017-07-10T03:22:44.666Z,33.40
2017-07-10T03:25:12.772Z,33.50
2017-07-10T03:27:40.887Z,33.50
2017-07-10T03:30:08.992Z,33.50
2017-07-10T03:32:37.104Z,33.50
2017-07-10T03:35:05.232Z,33.50
2017-07-10T03:37:33.416Z,33.50
2017-07-10T03:40:01.607Z,33.60
2017-07-10T03:42:29.744Z,33.60
2017-07-10T03:44:57.866Z,33.60
2017-07-10T03:47:25.973Z,33.80
2017-07-10T03:49:54.086Z,33.70
2017-07-10T03:52:22.204Z,33.70
2017-07-10T03:54:50.320Z,33.70
2017-07-10T03:57:18.509Z,33.70
2017-07-10T03:59:46.621Z,33.80
2017-07-10T04:02:14.812Z,33.90
2017-07-10T04:04:42.905Z,33.90
2017-07-10T04:07:11.016Z,34.00
2017-07-10T04:09:39.209Z,33.90
2017-07-10T04:12:07.328Z,33.90
2017-07-10T04:14:35.439Z,33.90
2017-07-10T04:17:03.533Z,34.00
2017-07-10T04:19:31.666Z,34.10
2017-07-10T04:21:59.804Z,34.20
2017-07-10T04:24:28.261Z,34.20
2017-07-10T04:26:56.396Z,34.20
2017-07-10T04:29:24.492Z,34.10
2017-07-10T04:31:52.597Z,34.10
2017-07-10T04:34:20.688Z,34.10
2017-07-10T04:36:48.824Z,34.10
2017-07-10T04:39:16.932Z,34.20
2017-07-10T04:41:45.048Z,34.30
2017-07-10T04:44:13.164Z,34.30
2017-07-10T04:46:41.271Z,34.30
2017-07-10T04:49:09.381Z,34.30
2017-07-10T04:51:37.493Z,34.20
2017-07-10T04:54:05.579Z,34.20
2017-07-10T04:56:33.781Z,34.20
2017-07-10T04:59:01.896Z,34.20
2017-07-10T05:01:29.997Z,34.20
2017-07-10T05:03:58.112Z,34.30
2017-07-10T05:06:26.238Z,34.30
2017-07-10T05:08:54.558Z,34.20
2017-07-10T05:11:22.717Z,34.30
2017-07-10T05:13:50.872Z,34.30
2017-07-10T05:16:18.984Z,34.40
2017-07-10T05:18:47.102Z,34.40
2017-07-10T05:21:15.241Z,34.40
2017-07-10T05:23:43.336Z,34.30
2017-07-10T05:26:42.726Z,34.40
2017-07-10T05:29:10.847Z,34.40
2017-07-10T05:31:38.950Z,34.40
2017-07-10T05:34:07.057Z,34.60
2017-07-10T05:36:35.716Z,34.60
2017-07-10T05:39:03.964Z,34.50
2017-07-10T05:41:32.067Z,34.50
2017-07-10T05:44:00.175Z,34.40
2017-07-10T05:46:28.292Z,34.40
2017-07-10T05:48:56.388Z,34.40
2017-07-10T05:51:24.480Z,34.40
2017-07-10T05:53:52.584Z,34.40
2017-07-10T05:56:20.692Z,34.70
2017-07-10T05:58:48.802Z,35.20
2017-07-10T06:01:16.917Z,36.20
2017-07-10T06:03:45.589Z,36.50
2017-07-10T06:06:13.704Z,37.10
2017-07-10T06:08:41.800Z,37.60
2017-07-10T06:11:09.900Z,38.20
2017-07-10T06:13:38.024Z,38.40
2017-07-10T06:16:06.110Z,38.70
2017-07-10T06:18:34.212Z,39.10
2017-07-10T06:21:02.348Z,39.50
2017-07-10T06:23:30.533Z,40.40
2017-07-10T06:25:58.630Z,40.10
2017-07-10T06:28:26.743Z,40.10
2017-07-10T06:30:54.862Z,40.70
2017-07-10T06:33:23.484Z,40.90
2017-07-10T06:35:51.579Z,41.40
2017-07-10T06:38:19.692Z,41.60
2017-07-10T06:40:47.846Z,41.80
2017-07-10T06:43:15.964Z,42.00
2017-07-10T06:45:49.126Z,42.30
2017-07-10T06:48:17.233Z,42.50
2017-07-10T06:50:45.337Z,42.60
2017-07-10T06:53:13.441Z,42.60
2017-07-10T06:55:41.708Z,43.60
2017-07-10T06:58:09.803Z,43.10
2017-07-10T07:00:37.921Z,43.00
2017-07-10T07:03:06.037Z,42.90
2017-07-10T07:05:39.341Z,43.10
2017-07-10T07:08:07.433Z,43.00
2017-07-10T07:12:00.372Z,42.70
2017-07-10T07:14:28.472Z,42.30
2017-07-10T07:16:56.564Z,42.00
2017-07-10T07:19:25.518Z,41.70
2017-07-10T07:21:53.601Z,41.40
2017-07-10T07:24:21.730Z,41.30
2017-07-10T07:26:49.811Z,41.40
2017-07-10T07:29:17.904Z,41.40
2017-07-10T07:31:46.010Z,41.40
2017-07-10T07:34:14.369Z,41.40
2017-07-10T07:36:42.597Z,41.20
2017-07-10T07:39:10.724Z,41.00
2017-07-10T07:41:38.831Z,40.90
2017-07-10T07:44:07.021Z,40.50
2017-07-10T07:46:40.085Z,40.40
2017-07-10T07:49:08.209Z,40.60
2017-07-10T07:51:36.653Z,40.70
2017-07-10T07:54:04.760Z,40.70
2017-07-10T07:56:32.869Z,40.60
2017-07-10T07:59:00.985Z,40.40
2017-07-10T08:01:29.120Z,40.40
2017-07-10T08:03:57.229Z,40.50
2017-07-10T08:06:25.337Z,40.60
2017-07-10T08:08:53.458Z,40.80
2017-07-10T08:11:21.695Z,40.60
2017-07-10T08:13:49.784Z,40.40
2017-07-10T08:16:17.936Z,40.40
2017-07-10T08:18:46.049Z,40.60
2017-07-10T08:21:14.164Z,40.70
2017-07-10T08:23:42.290Z,40.40
2017-07-10T08:26:10.384Z,40.20
2017-07-10T08:28:38.509Z,39.90
2017-07-10T08:31:06.609Z,39.70
2017-07-10T08:33:34.717Z,39.40
2017-07-10T08:36:02.841Z,39.00
2017-07-10T08:38:30.948Z,38.30
2017-07-10T08:41:04.397Z,37.90
2017-07-10T08:43:32.501Z,37.90
2017-07-10T08:46:00.611Z,38.00
2017-07-10T08:48:28.711Z,37.80
2017-07-10T08:50:56.877Z,37.70
2017-07-10T08:53:24.973Z,37.30
2017-07-10T08:55:54.079Z,37.10
2017-07-10T08:58:22.181Z,36.90
2017-07-10T09:00:50.704Z,36.80
2017-07-10T09:03:18.809Z,36.50
2017-07-10T09:05:46.901Z,36.50
2017-07-10T09:08:15.018Z,36.40
2017-07-10T09:10:43.120Z,36.20
2017-07-10T09:13:11.253Z,36.00
2017-07-10T09:15:39.945Z,35.90
2017-07-10T09:18:08.048Z,35.90
2017-07-10T09:20:36.180Z,35.90
2017-07-10T09:23:04.292Z,35.80
2017-07-10T09:25:32.471Z,35.70
2017-07-10T09:28:01.278Z,35.70
2017-07-10T09:30:29.749Z,35.40
2017-07-10T09:32:57.856Z,35.30
2017-07-10T09:35:25.974Z,35.20
2017-07-10T09:37:54.121Z,35.20
2017-07-10T09:40:22.268Z,35.20
2017-07-10T09:42:50.440Z,35.00
2017-07-10T09:45:18.544Z,35.00
2017-07-10T09:47:46.689Z,35.00
2017-07-10T09:50:14.805Z,35.20
2017-07-10T09:52:42.925Z,35.50
2017-07-10T09:55:11.633Z,35.90
2017-07-10T09:57:39.750Z,35.80
2017-07-10T10:00:07.858Z,35.90
2017-07-10T10:02:36.114Z,35.50
2017-07-10T10:05:04.224Z,35.30
2017-07-10T10:07:32.448Z,35.20
2017-07-10T10:10:00.563Z,35.20
2017-07-10T10:12:28.693Z,34.90
2017-07-10T10:14:56.855Z,34.50
2017-07-10T10:17:24.976Z,34.50
2017-07-10T10:19:53.133Z,34.40
2017-07-10T10:22:21.299Z,34.20
2017-07-10T10:24:49.414Z,34.10
2017-07-10T10:27:17.537Z,34.00
2017-07-10T10:29:46.541Z,34.20
2017-07-10T10:32:14.674Z,34.10
2017-07-10T10:34:42.801Z,33.90
2017-07-10T10:37:10.904Z,33.30
2017-07-10T10:39:39.017Z,33.10
2017-07-10T10:42:07.187Z,32.90
2017-07-10T10:44:35.304Z,32.90
2017-07-10T10:47:03.421Z,32.60
2017-07-10T10:49:31.538Z,32.20
2017-07-10T10:51:59.629Z,32.20
2017-07-10T10:54:27.744Z,31.90
2017-07-10T10:56:55.901Z,31.80
2017-07-10T10:59:24.024Z,31.80
2017-07-10T11:01:52.144Z,31.50
2017-07-10T11:04:20.256Z,31.30
2017-07-10T11:06:48.349Z,31.00
2017-07-10T11:09:16.475Z,30.80
2017-07-10T11:11:44.672Z,31.10
2017-07-10T11:14:12.772Z,30.30
2017-07-10T11:16:40.899Z,30.40
2017-07-10T11:19:09.727Z,30.00
2017-07-10T11:21:37.812Z,30.60
2017-07-10T11:24:05.940Z,30.20
2017-07-10T11:26:34.071Z,30.30
2017-07-10T11:29:02.188Z,30.40
2017-07-10T11:31:30.385Z,30.60
2017-07-10T11:33:58.481Z,31.10
2017-07-10T11:36:26.917Z,30.70
2017-07-10T11:38:55.023Z,30.70
2017-07-10T11:41:23.165Z,30.80
2017-07-10T11:43:51.268Z,30.80
2017-07-10T11:46:19.437Z,30.80
2017-07-10T11:48:47.566Z,30.80
2017-07-10T11:51:15.700Z,30.90
2017-07-10T11:53:43.873Z,30.60
2017-07-10T11:56:12.001Z,30.40
2017-07-10T11:58:40.113Z,30.10
2017-07-10T12:01:08.216Z,30.00
2017-07-10T12:03:36.353Z,29.90
2017-07-10T12:06:04.473Z,29.90
2017-07-10T12:08:32.611Z,30.00
2017-07-10T12:11:00.715Z,30.00
2017-07-10T12:13:28.813Z,30.00
2017-07-10T12:15:56.916Z,30.10
2017-07-10T12:18:25.019Z,30.00
2017-07-10T12:20:53.134Z,30.10
2017-07-10T12:23:21.236Z,30.20
2017-07-10T12:25:49.365Z,30.20
2017-07-10T12:28:17.476Z,30.20
2017-07-10T12:30:50.257Z,30.70
2017-07-10T12:33:18.674Z,30.00
2017-07-10T12:35:46.786Z,29.90
2017-07-10T12:38:14.911Z,29.70
2017-07-10T12:40:43.009Z,29.30
2017-07-10T12:43:11.144Z,28.80
2017-07-10T12:45:39.261Z,28.60
2017-07-10T12:48:07.396Z,28.40
2017-07-10T12:50:35.513Z,28.20
2017-07-10T12:53:03.632Z,28.10
2017-07-10T12:55:31.796Z,28.00
2017-07-10T12:57:59.921Z,28.00
2017-07-10T13:00:28.047Z,28.00
2017-07-10T13:02:56.208Z,28.00
2017-07-10T13:05:24.321Z,28.10
2017-07-10T13:07:52.513Z,28.00
2017-07-10T13:10:20.640Z,28.00
2017-07-10T13:12:48.762Z,27.90
2017-07-10T13:15:16.873Z,27.80
2017-07-10T13:17:44.989Z,27.70
2017-07-10T13:20:13.175Z,27.50
2017-07-10T13:22:41.320Z,27.50
2017-07-10T13:25:09.438Z,27.30
2017-07-10T13:27:37.545Z,27.40
2017-07-10T13:30:05.653Z,27.50
2017-07-10T13:32:33.778Z,27.30
2017-07-10T13:35:01.928Z,27.70
2017-07-10T13:37:30.602Z,27.10
2017-07-10T13:39:58.735Z,27.00
2017-07-10T13:42:26.910Z,26.90
2017-07-10T13:44:55.025Z,26.80
2017-07-10T13:47:23.197Z,26.60
2017-07-10T13:49:51.292Z,26.60
2017-07-10T13:52:19.462Z,26.80
2017-07-10T13:54:47.621Z,26.60
2017-07-10T13:57:16.408Z,26.70
2017-07-10T13:59:44.514Z,26.70
2017-07-10T14:02:12.624Z,26.70
2017-07-10T14:04:41.449Z,26.80
2017-07-10T14:07:09.737Z,26.80
2017-07-10T14:09:37.838Z,26.90
2017-07-10T14:12:06.682Z,27.00
2017-07-10T14:14:34.786Z,26.80
2017-07-10T14:17:03.564Z,26.90
2017-07-10T14:19:31.677Z,26.90
2017-07-10T14:21:59.869Z,27.00
2017-07-10T14:24:28.013Z,27.00
2017-07-10T14:26:56.159Z,27.40
